createdAt,value
2023-04-24T00:00:27.875Z,14.24
2023-04-24T00:01:27.874Z,14.29
2023-04-24T00:02:27.962Z,14.24
2023-04-24T00:03:27.928Z,14.20
2023-04-24T00:04:27.921Z,14.23
2023-04-24T00:05:27.819Z,14.17
2023-04-24T00:06:27.805Z,14.12
2023-04-24T00:07:27.800Z,14.12
2023-04-24T00:08:27.789Z,14.12
2023-04-24T00:09:27.786Z,14.17
2023-04-24T00:10:27.786Z,14.17
2023-04-24T00:11:27.752Z,14.11
2023-04-24T00:12:27.742Z,14.16
2023-04-24T00:13:27.730Z,14.04
2023-04-24T00:14:27.726Z,14.17
2023-04-24T00:15:27.719Z,14.08
2023-04-24T00:16:27.720Z,14.13
2023-04-24T00:17:27.725Z,14.05
2023-04-24T00:18:27.667Z,14.06
2023-04-24T00:19:27.662Z,13.98
2023-04-24T00:20:27.655Z,14.02
2023-04-24T00:21:27.644Z,14.06
2023-04-24T00:22:27.643Z,13.99
2023-04-24T00:23:27.618Z,13.94
2023-04-24T00:24:27.616Z,13.98
2023-04-24T00:25:27.599Z,14.04
2023-04-24T00:26:27.604Z,14.06
2023-04-24T00:27:27.578Z,13.99
2023-04-24T00:28:27.560Z,14.01
2023-04-24T00:29:27.567Z,13.98
2023-04-24T00:30:27.547Z,13.98
2023-04-24T00:31:27.551Z,13.90
2023-04-24T00:32:27.526Z,13.86
2023-04-24T00:33:27.508Z,13.83
2023-04-24T00:34:27.496Z,13.76
2023-04-24T00:35:27.486Z,13.83
2023-04-24T00:36:27.468Z,13.75
2023-04-24T00:37:27.470Z,13.80
2023-04-24T00:38:27.452Z,13.83
2023-04-24T00:39:27.440Z,13.76
2023-04-24T00:40:27.426Z,13.65
2023-04-24T00:41:27.421Z,13.63
2023-04-24T00:42:27.430Z,13.59
2023-04-24T00:43:27.394Z,13.57
2023-04-24T00:44:27.388Z,13.62
2023-04-24T00:45:27.371Z,13.59
2023-04-24T00:46:27.388Z,13.55
2023-04-24T00:47:27.349Z,13.53
2023-04-24T00:48:27.338Z,13.54
2023-04-24T00:49:27.326Z,13.50
2023-04-24T00:50:27.328Z,13.54
2023-04-24T00:51:27.316Z,13.51
2023-04-24T00:52:27.301Z,13.51
2023-04-24T00:53:27.287Z,13.48
2023-04-24T00:54:27.266Z,13.59
2023-04-24T00:55:27.283Z,13.53
2023-04-24T00:56:27.250Z,13.48
2023-04-24T00:57:27.246Z,13.62
2023-04-24T00:58:27.243Z,13.59
2023-04-24T01:00:27.203Z,13.62
2023-04-24T01:01:27.233Z,13.61
2023-04-24T01:02:27.458Z,13.55
2023-04-24T01:03:27.351Z,13.57
2023-04-24T01:04:27.310Z,13.63
2023-04-24T01:05:27.149Z,13.65
2023-04-24T01:06:27.134Z,13.59
2023-04-24T01:07:27.124Z,13.61
2023-04-24T01:08:27.122Z,13.62
2023-04-24T01:09:27.136Z,13.61
2023-04-24T01:10:27.088Z,13.59
2023-04-24T01:11:27.074Z,13.54
2023-04-24T01:12:27.074Z,13.59
2023-04-24T01:13:27.074Z,13.61
2023-04-24T01:14:27.072Z,13.63
2023-04-24T01:15:27.030Z,13.69
2023-04-24T01:16:27.148Z,13.65
2023-04-24T01:17:27.053Z,13.71
2023-04-24T01:18:27.016Z,13.63
2023-04-24T01:19:27.018Z,13.63
2023-04-24T01:20:26.990Z,13.65
2023-04-24T01:21:26.967Z,13.57
2023-04-24T01:22:26.952Z,13.55
2023-04-24T01:23:26.945Z,13.62
2023-04-24T01:24:26.942Z,13.48
2023-04-24T01:25:26.912Z,13.65
2023-04-24T01:26:26.909Z,13.63
2023-04-24T01:27:26.900Z,13.65
2023-04-24T01:28:26.888Z,13.68
2023-04-24T01:29:26.875Z,13.63
2023-04-24T01:30:26.897Z,13.71
2023-04-24T01:31:26.955Z,13.62
2023-04-24T01:32:26.903Z,13.53
2023-04-24T01:33:26.839Z,13.54
2023-04-24T01:34:26.826Z,13.39
2023-04-24T01:35:26.809Z,13.57
2023-04-24T01:36:27.260Z,13.62
2023-04-24T01:37:26.791Z,13.53
2023-04-24T01:38:26.781Z,13.47
2023-04-24T01:39:26.843Z,13.46
2023-04-24T01:40:26.749Z,13.46
2023-04-24T01:41:26.739Z,13.51
2023-04-24T01:42:26.722Z,13.51
2023-04-24T01:43:26.706Z,13.48
2023-04-24T01:44:26.699Z,13.54
2023-04-24T01:45:26.687Z,13.51
2023-04-24T01:46:26.804Z,13.55
2023-04-24T01:47:26.710Z,13.41
2023-04-24T01:48:26.680Z,13.38
2023-04-24T01:49:26.640Z,13.54
2023-04-24T01:50:26.647Z,13.51
2023-04-24T01:51:26.632Z,13.38
2023-04-24T01:52:26.613Z,13.48
2023-04-24T01:53:26.592Z,13.54
2023-04-24T01:54:26.579Z,13.51
2023-04-24T01:55:26.573Z,13.44
2023-04-24T01:56:26.556Z,13.54
2023-04-24T01:57:26.548Z,13.36
2023-04-24T01:58:26.534Z,13.41
2023-04-24T01:59:26.525Z,13.39
2023-04-24T02:00:26.515Z,13.41
2023-04-24T02:01:26.562Z,13.39
2023-04-24T02:02:26.698Z,13.39
2023-04-24T02:03:26.703Z,13.36
2023-04-24T02:04:26.485Z,13.28
2023-04-24T02:05:26.455Z,13.22
2023-04-24T02:06:26.439Z,13.22
2023-04-24T02:07:26.442Z,13.32
2023-04-24T02:08:26.420Z,13.25
2023-04-24T02:09:26.409Z,13.21
2023-04-24T02:10:26.394Z,13.25
2023-04-24T02:11:26.388Z,13.32
2023-04-24T02:12:26.370Z,13.17
2023-04-24T02:13:26.380Z,13.22
2023-04-24T02:14:26.348Z,13.10
2023-04-24T02:15:26.346Z,13.17
2023-04-24T02:16:26.330Z,13.14
2023-04-24T02:17:26.335Z,13.07
2023-04-24T02:18:26.317Z,13.14
2023-04-24T02:19:26.293Z,13.03
2023-04-24T02:20:26.274Z,13.09
2023-04-24T02:21:26.264Z,12.95
2023-04-24T02:22:26.251Z,12.92
2023-04-24T02:23:26.241Z,13.03
2023-04-24T02:24:26.227Z,13.14
2023-04-24T02:25:26.219Z,13.19
2023-04-24T02:26:26.407Z,13.19
2023-04-24T02:27:26.201Z,13.10
2023-04-24T02:28:26.186Z,13.10
2023-04-24T02:29:26.168Z,13.09
2023-04-24T02:30:26.154Z,13.09
2023-04-24T02:31:26.201Z,13.12
2023-04-24T02:32:26.132Z,13.12
2023-04-24T02:33:26.126Z,13.12
2023-04-24T02:34:26.131Z,13.13
2023-04-24T02:35:26.148Z,13.12
2023-04-24T02:36:26.081Z,13.06
2023-04-24T02:37:26.083Z,13.04
2023-04-24T02:38:26.061Z,13.07
2023-04-24T02:39:26.050Z,13.07
2023-04-24T02:40:26.037Z,13.09
2023-04-24T02:41:26.029Z,13.12
2023-04-24T02:42:26.015Z,13.12
2023-04-24T02:43:26.004Z,13.03
2023-04-24T02:44:25.989Z,12.99
2023-04-24T02:45:25.979Z,13.01
2023-04-24T02:46:25.983Z,12.96
2023-04-24T02:47:25.981Z,12.89
2023-04-24T02:48:25.943Z,12.84
2023-04-24T02:49:25.929Z,12.84
2023-04-24T02:50:25.939Z,12.84
2023-04-24T02:51:25.908Z,12.89
2023-04-24T02:52:25.893Z,12.88
2023-04-24T02:53:25.892Z,13.01
2023-04-24T02:54:25.872Z,12.89
2023-04-24T02:55:25.867Z,12.94
2023-04-24T02:56:25.848Z,12.94
2023-04-24T02:57:25.836Z,12.92
2023-04-24T02:58:25.821Z,12.94
2023-04-24T02:59:25.821Z,12.87
2023-04-24T03:00:25.797Z,12.94
2023-04-24T03:01:25.853Z,12.98
2023-04-24T03:02:25.886Z,12.85
2023-04-24T03:03:25.927Z,12.89
2023-04-24T03:04:25.861Z,12.89
2023-04-24T03:05:25.741Z,12.92
2023-04-24T03:06:25.743Z,12.91
2023-04-24T03:07:25.720Z,12.98
2023-04-24T03:08:25.700Z,12.85
2023-04-24T03:09:25.692Z,12.88
2023-04-24T03:10:25.676Z,12.92
2023-04-24T03:11:25.670Z,12.81
2023-04-24T03:12:25.669Z,12.81
2023-04-24T03:13:25.643Z,12.85
2023-04-24T03:14:25.628Z,12.91
2023-04-24T03:15:25.617Z,12.96
2023-04-24T03:16:25.613Z,12.76
2023-04-24T03:17:25.597Z,12.77
2023-04-24T03:18:25.597Z,12.81
2023-04-24T03:19:25.575Z,12.88
2023-04-24T03:20:25.565Z,12.88
2023-04-24T03:21:25.551Z,12.85
2023-04-24T03:22:25.553Z,12.74
2023-04-24T03:23:25.526Z,12.73
2023-04-24T03:24:25.511Z,12.80
2023-04-24T03:25:25.502Z,12.74
2023-04-24T03:26:25.491Z,12.67
2023-04-24T03:27:25.479Z,12.70
2023-04-24T03:28:25.463Z,12.58
2023-04-24T03:29:25.464Z,12.66
2023-04-24T03:30:25.435Z,12.69
2023-04-24T03:31:25.461Z,12.56
2023-04-24T03:32:25.429Z,12.59
2023-04-24T03:33:25.409Z,12.62
2023-04-24T03:34:25.389Z,12.71
2023-04-24T03:35:25.380Z,12.71
2023-04-24T03:36:25.365Z,12.79
2023-04-24T03:37:25.356Z,12.66
2023-04-24T03:38:25.380Z,12.74
2023-04-24T03:39:25.342Z,12.79
2023-04-24T03:40:25.318Z,12.66
2023-04-24T03:41:25.309Z,12.74
2023-04-24T03:42:25.294Z,12.77
2023-04-24T03:43:25.293Z,12.71
2023-04-24T03:44:25.274Z,12.67
2023-04-24T03:45:25.279Z,12.77
2023-04-24T03:46:25.275Z,12.63
2023-04-24T03:47:25.266Z,12.67
2023-04-24T03:48:25.225Z,12.62
2023-04-24T03:49:25.212Z,12.62
2023-04-24T03:50:25.200Z,12.55
2023-04-24T03:51:25.188Z,12.62
2023-04-24T03:52:25.179Z,12.61
2023-04-24T03:53:25.169Z,12.63
2023-04-24T03:54:25.175Z,12.61
2023-04-24T03:55:25.141Z,12.58
2023-04-24T03:56:25.128Z,12.51
2023-04-24T03:57:25.113Z,12.59
2023-04-24T03:58:25.097Z,12.49
2023-04-24T03:59:25.112Z,12.52
2023-04-24T04:00:25.074Z,12.61
2023-04-24T04:01:25.071Z,12.58
2023-04-24T04:02:25.142Z,12.61
2023-04-24T04:03:25.302Z,12.55
2023-04-24T04:04:25.173Z,12.48
2023-04-24T04:05:25.134Z,12.51
2023-04-24T04:06:25.004Z,12.59
2023-04-24T04:07:25.012Z,12.49
2023-04-24T04:08:24.977Z,12.52
2023-04-24T04:09:24.971Z,12.51
2023-04-24T04:10:24.970Z,12.58
2023-04-24T04:11:24.943Z,12.43
2023-04-24T04:12:24.929Z,12.59
2023-04-24T04:13:24.915Z,12.54
2023-04-24T04:14:24.912Z,12.61
2023-04-24T04:15:24.897Z,12.77
2023-04-24T04:16:24.906Z,12.59
2023-04-24T04:17:24.871Z,12.59
2023-04-24T04:18:24.865Z,12.63
2023-04-24T04:19:24.856Z,12.67
2023-04-24T04:20:24.830Z,12.77
2023-04-24T04:21:24.819Z,12.70
2023-04-24T04:22:24.806Z,12.61
2023-04-24T04:23:24.797Z,12.59
2023-04-24T04:24:24.790Z,12.66
2023-04-24T04:25:24.772Z,12.54
2023-04-24T04:26:24.774Z,12.55
2023-04-24T04:27:24.748Z,12.56
2023-04-24T04:28:24.733Z,12.62
2023-04-24T04:29:24.746Z,12.62
2023-04-24T04:30:24.709Z,12.59
2023-04-24T04:31:24.725Z,12.55
2023-04-24T04:32:24.690Z,12.48
2023-04-24T04:33:24.683Z,12.54
2023-04-24T04:34:24.668Z,12.61
2023-04-24T04:35:24.654Z,12.54
2023-04-24T04:36:24.640Z,12.54
2023-04-24T04:37:24.628Z,12.56
2023-04-24T04:38:24.613Z,12.58
2023-04-24T04:39:24.608Z,12.40
2023-04-24T04:40:24.594Z,12.56
2023-04-24T04:41:24.577Z,12.61
2023-04-24T04:42:24.602Z,12.52
2023-04-24T04:43:24.556Z,12.59
2023-04-24T04:44:24.537Z,12.49
2023-04-24T04:45:24.539Z,12.58
2023-04-24T04:46:24.631Z,12.49
2023-04-24T04:47:24.546Z,12.49
2023-04-24T04:48:24.497Z,12.40
2023-04-24T04:49:24.483Z,12.54
2023-04-24T04:50:24.479Z,12.43
2023-04-24T04:51:24.458Z,12.38
2023-04-24T04:52:24.443Z,12.26
2023-04-24T04:53:24.432Z,12.29
2023-04-24T04:54:24.415Z,12.29
2023-04-24T04:55:24.418Z,12.22
2023-04-24T04:56:24.394Z,12.30
2023-04-24T04:57:24.386Z,12.33
2023-04-24T04:58:24.388Z,12.38
2023-04-24T04:59:24.363Z,12.21
2023-04-24T05:00:24.366Z,12.19
2023-04-24T05:01:24.404Z,12.11
2023-04-24T05:02:24.433Z,12.08
2023-04-24T05:03:24.437Z,12.12
2023-04-24T05:04:24.493Z,12.11
2023-04-24T05:05:24.288Z,12.23
2023-04-24T05:06:24.589Z,12.21
2023-04-24T05:07:24.275Z,12.01
2023-04-24T05:08:27.563Z,12.13
2023-04-24T05:09:24.245Z,12.22
2023-04-24T05:10:24.223Z,12.11
2023-04-24T05:11:24.217Z,12.12
2023-04-24T05:12:24.203Z,12.08
2023-04-24T05:13:35.689Z,12.18
2023-04-24T05:14:24.195Z,12.18
2023-04-24T05:15:24.165Z,12.19
2023-04-24T05:16:24.174Z,12.22
2023-04-24T05:17:24.164Z,12.22
2023-04-24T05:18:24.127Z,12.21
2023-04-24T05:19:24.117Z,12.12
2023-04-24T05:20:24.104Z,12.13
2023-04-24T05:21:24.095Z,12.00
2023-04-24T05:22:24.078Z,12.07
2023-04-24T05:24:24.056Z,12.05
2023-04-24T05:25:24.047Z,12.03
2023-04-24T05:26:24.039Z,12.11
2023-04-24T05:27:24.017Z,11.97
2023-04-24T05:28:24.018Z,12.07
2023-04-24T05:29:23.994Z,12.07
2023-04-24T05:30:24.024Z,12.08
2023-04-24T05:31:24.051Z,12.21
2023-04-24T05:32:23.992Z,12.23
2023-04-24T05:33:23.949Z,12.16
2023-04-24T05:34:23.935Z,12.15
2023-04-24T05:35:23.921Z,12.15
2023-04-24T05:36:23.922Z,12.05
2023-04-24T05:37:23.897Z,12.18
2023-04-24T05:38:23.885Z,12.18
2023-04-24T05:39:23.872Z,12.21
2023-04-24T05:40:23.862Z,12.19
2023-04-24T05:41:23.847Z,12.23
2023-04-24T05:42:23.848Z,12.22
2023-04-24T05:43:23.820Z,12.29
2023-04-24T05:44:23.815Z,12.30
2023-04-24T05:45:23.813Z,12.40
2023-04-24T05:46:23.815Z,12.31
2023-04-24T05:47:23.792Z,12.29
2023-04-24T05:48:23.772Z,12.37
2023-04-24T05:49:23.754Z,12.54
2023-04-24T05:50:23.740Z,12.56
2023-04-24T05:51:23.735Z,12.63
2023-04-24T05:52:23.717Z,12.67
2023-04-24T05:53:23.703Z,12.74
2023-04-24T05:54:23.700Z,12.73
2023-04-24T05:55:23.686Z,12.91
2023-04-24T05:56:23.668Z,12.91
2023-04-24T05:57:23.652Z,12.99
2023-04-24T05:58:23.644Z,13.06
2023-04-24T05:59:23.635Z,13.17
2023-04-24T06:00:23.620Z,13.14
2023-04-24T06:01:23.602Z,13.19
2023-04-24T06:02:23.761Z,13.25
2023-04-24T06:03:23.703Z,13.22
2023-04-24T06:04:23.902Z,13.27
2023-04-24T06:05:23.698Z,13.27
2023-04-24T06:06:23.548Z,13.28
2023-04-24T06:07:23.538Z,13.21
2023-04-24T06:08:23.524Z,13.29
2023-04-24T06:09:23.521Z,13.29
2023-04-24T06:10:23.499Z,13.36
2023-04-24T06:11:23.491Z,13.29
2023-04-24T06:12:23.476Z,13.29
2023-04-24T06:13:23.476Z,13.31
2023-04-24T06:14:23.455Z,13.19
2023-04-24T06:15:23.445Z,13.35
2023-04-24T06:16:23.442Z,13.35
2023-04-24T06:17:23.461Z,13.36
2023-04-24T06:18:23.429Z,13.51
2023-04-24T06:19:23.412Z,13.62
2023-04-24T06:20:23.384Z,13.72
2023-04-24T06:21:23.381Z,13.80
2023-04-24T06:22:23.360Z,13.94
2023-04-24T06:23:23.354Z,14.05
2023-04-24T06:24:23.373Z,14.12
2023-04-24T06:25:23.336Z,14.08
2023-04-24T06:26:23.317Z,14.05
2023-04-24T06:27:23.317Z,14.09
2023-04-24T06:28:23.295Z,14.02
2023-04-24T06:29:23.282Z,13.96
2023-04-24T06:30:23.271Z,13.84
2023-04-24T06:31:23.306Z,13.80
2023-04-24T06:32:23.532Z,13.79
2023-04-24T06:33:24.017Z,13.68
2023-04-24T06:34:23.260Z,13.66
2023-04-24T06:35:23.215Z,13.66
2023-04-24T06:36:23.215Z,13.55
2023-04-24T06:37:23.193Z,13.51
2023-04-24T06:38:23.184Z,13.48
2023-04-24T06:39:23.201Z,13.48
2023-04-24T06:40:23.159Z,13.53
2023-04-24T06:41:23.147Z,13.53
2023-04-24T06:42:23.157Z,13.55
2023-04-24T06:43:23.126Z,13.65
2023-04-24T06:44:23.109Z,13.75
2023-04-24T06:45:23.104Z,13.73
2023-04-24T06:46:23.270Z,13.76
2023-04-24T06:47:23.116Z,13.84
2023-04-24T06:48:23.069Z,13.88
2023-04-24T06:49:23.059Z,13.80
2023-04-24T06:50:23.064Z,13.91
2023-04-24T06:51:23.036Z,13.94
2023-04-24T06:52:23.021Z,13.90
2023-04-24T06:53:23.013Z,13.94
2023-04-24T06:54:23.041Z,14.13
2023-04-24T06:55:23.004Z,14.17
2023-04-24T06:56:22.979Z,14.42
2023-04-24T06:57:22.969Z,14.56
2023-04-24T06:58:22.957Z,14.74
2023-04-24T06:59:22.946Z,14.91
2023-04-24T07:00:23.234Z,15.00
2023-04-24T07:01:23.013Z,15.15
2023-04-24T07:02:23.007Z,15.18
2023-04-24T07:03:22.979Z,15.28
2023-04-24T07:04:23.129Z,15.34
2023-04-24T07:05:22.894Z,15.34
2023-04-24T07:06:22.884Z,15.64
2023-04-24T07:07:25.037Z,15.64
2023-04-24T07:08:22.850Z,15.71
2023-04-24T07:09:22.842Z,15.62
2023-04-24T07:10:22.828Z,15.77
2023-04-24T07:11:22.820Z,15.78
2023-04-24T07:12:22.811Z,15.85
2023-04-24T07:13:22.896Z,16.01
2023-04-24T07:14:22.787Z,16.14
2023-04-24T07:15:22.783Z,16.27
2023-04-24T07:16:22.830Z,16.18
2023-04-24T07:17:22.790Z,16.07
2023-04-24T07:18:22.746Z,15.80
2023-04-24T07:19:22.747Z,15.58
2023-04-24T07:20:22.735Z,15.44
2023-04-24T07:21:22.719Z,15.35
2023-04-24T07:22:22.725Z,15.40
2023-04-24T07:23:22.707Z,15.41
2023-04-24T07:24:23.906Z,15.34
2023-04-24T07:25:22.704Z,15.25
2023-04-24T07:26:22.667Z,15.12
2023-04-24T07:27:22.662Z,14.74
2023-04-24T07:28:22.650Z,14.45
2023-04-24T07:29:22.643Z,13.96
2023-04-24T07:30:22.657Z,13.80
2023-04-24T07:31:22.693Z,13.62
2023-04-24T07:33:22.620Z,13.14
2023-04-24T07:34:22.581Z,13.06
2023-04-24T07:35:22.572Z,13.06
2023-04-24T07:36:22.564Z,12.95
2023-04-24T07:37:22.550Z,12.87
2023-04-24T07:38:22.558Z,12.87
2023-04-24T07:39:22.536Z,12.87
2023-04-24T07:40:22.519Z,12.99
2023-04-24T07:41:23.576Z,12.79
2023-04-24T07:42:22.494Z,12.94
2023-04-24T07:43:22.490Z,12.96
2023-04-24T07:44:22.470Z,12.79
2023-04-24T07:45:22.457Z,12.73
2023-04-24T07:46:22.484Z,12.74
2023-04-24T07:47:22.510Z,12.58
2023-04-24T07:48:22.434Z,12.49
2023-04-24T07:49:22.406Z,12.55
2023-04-24T07:50:22.435Z,12.52
2023-04-24T07:51:22.384Z,12.51
2023-04-24T07:52:22.387Z,12.51
2023-04-24T07:53:22.363Z,12.41
2023-04-24T07:54:22.383Z,12.38
2023-04-24T07:55:24.123Z,12.37
2023-04-24T07:56:22.329Z,12.29
2023-04-24T07:57:22.313Z,12.25
2023-04-24T07:58:22.320Z,12.12
2023-04-24T07:59:22.286Z,12.03
2023-04-24T08:00:22.348Z,12.13
2023-04-24T08:01:22.260Z,12.15
2023-04-24T08:02:22.334Z,12.07
2023-04-24T08:03:22.363Z,12.03
2023-04-24T08:04:22.311Z,12.31
2023-04-24T08:05:22.338Z,12.26
2023-04-24T08:06:22.205Z,12.43
2023-04-24T08:07:22.188Z,12.40
2023-04-24T08:08:22.177Z,12.40
2023-04-24T08:09:22.160Z,12.37
2023-04-24T08:10:22.186Z,12.31
2023-04-24T08:11:24.773Z,12.33
2023-04-24T08:12:22.129Z,12.52
2023-04-24T08:13:22.109Z,12.58
2023-04-24T08:14:22.106Z,12.61
2023-04-24T08:15:22.085Z,12.62
2023-04-24T08:16:22.110Z,12.62
2023-04-24T08:17:22.059Z,12.71
2023-04-24T08:18:22.193Z,12.81
2023-04-24T08:19:22.037Z,12.84
2023-04-24T08:20:22.042Z,12.73
2023-04-24T08:21:22.018Z,12.69
2023-04-24T08:22:22.006Z,12.84
2023-04-24T08:23:21.988Z,12.81
2023-04-24T08:24:21.978Z,12.74
2023-04-24T08:25:21.962Z,13.12
2023-04-24T08:26:21.969Z,13.38
2023-04-24T08:27:21.936Z,13.69
2023-04-24T08:28:21.930Z,13.93
2023-04-24T08:29:21.920Z,14.05
2023-04-24T08:30:21.912Z,13.87
2023-04-24T08:31:21.932Z,13.65
2023-04-24T08:32:21.967Z,13.53
2023-04-24T08:33:21.865Z,13.66
2023-04-24T08:34:21.853Z,13.65
2023-04-24T08:35:21.839Z,13.65
2023-04-24T08:36:22.177Z,13.69
2023-04-24T08:37:21.827Z,13.87
2023-04-24T08:38:21.820Z,13.96
2023-04-24T08:39:21.793Z,13.46
2023-04-24T08:40:21.787Z,13.51
2023-04-24T08:41:21.771Z,13.69
2023-04-24T08:42:21.783Z,13.79
2023-04-24T08:43:21.745Z,13.91
2023-04-24T08:44:21.751Z,14.11
2023-04-24T08:45:21.718Z,14.19
2023-04-24T08:46:21.736Z,14.17
2023-04-24T08:47:21.745Z,14.44
2023-04-24T08:48:30.464Z,14.36
2023-04-24T08:49:21.677Z,14.53
2023-04-24T08:50:21.681Z,14.57
2023-04-24T08:51:21.664Z,14.75
2023-04-24T08:52:21.658Z,14.82
2023-04-24T08:53:21.639Z,15.09
2023-04-24T08:54:21.686Z,15.18
2023-04-24T08:55:21.624Z,15.18
2023-04-24T08:56:21.607Z,15.44
2023-04-24T08:57:21.587Z,15.46
2023-04-24T08:58:21.600Z,15.60
2023-04-24T08:59:21.564Z,15.73
2023-04-24T09:00:21.556Z,15.53
2023-04-24T09:01:21.600Z,15.81
2023-04-24T09:02:21.582Z,15.86
2023-04-24T09:03:21.705Z,15.60
2023-04-24T09:04:21.666Z,15.48
2023-04-24T09:05:21.505Z,15.60
2023-04-24T09:06:21.521Z,15.44
2023-04-24T09:07:21.476Z,15.27
2023-04-24T09:08:21.911Z,15.28
2023-04-24T09:09:21.458Z,15.51
2023-04-24T09:10:21.455Z,15.62
2023-04-24T09:11:21.439Z,15.64
2023-04-24T09:12:21.439Z,15.34
2023-04-24T09:13:21.457Z,15.48
2023-04-24T09:14:21.437Z,15.60
2023-04-24T09:15:21.407Z,15.43
2023-04-24T09:16:21.418Z,15.38
2023-04-24T09:17:21.392Z,15.35
2023-04-24T09:18:21.369Z,15.33
2023-04-24T09:19:21.351Z,15.37
2023-04-24T09:20:21.351Z,15.33
2023-04-24T09:21:21.331Z,15.18
2023-04-24T09:22:21.323Z,15.37
2023-04-24T09:23:21.309Z,15.18
2023-04-24T09:24:21.340Z,15.05
2023-04-24T09:25:21.285Z,15.00
2023-04-24T09:26:21.282Z,15.03
2023-04-24T09:27:21.266Z,15.01
2023-04-24T09:28:21.260Z,14.95
2023-04-24T09:29:21.246Z,14.97
2023-04-24T09:30:21.280Z,14.72
2023-04-24T09:31:21.238Z,14.74
2023-04-24T09:32:21.263Z,14.75
2023-04-24T09:33:21.202Z,14.69
2023-04-24T09:34:21.195Z,14.66
2023-04-24T09:35:21.179Z,14.57
2023-04-24T09:36:21.174Z,14.57
2023-04-24T09:37:21.163Z,14.66
2023-04-24T09:38:21.152Z,14.66
2023-04-24T09:39:21.145Z,14.66
2023-04-24T09:40:21.137Z,14.69
2023-04-24T09:41:21.117Z,14.56
2023-04-24T09:42:21.108Z,14.64
2023-04-24T09:43:21.091Z,14.67
2023-04-24T09:44:21.090Z,14.69
2023-04-24T09:45:21.070Z,14.97
2023-04-24T09:46:21.157Z,15.12
2023-04-24T09:47:21.130Z,15.13
2023-04-24T09:48:21.054Z,15.31
2023-04-24T09:49:21.027Z,15.40
2023-04-24T09:50:21.410Z,15.58
2023-04-24T09:51:21.069Z,15.55
2023-04-24T09:52:21.012Z,15.71
2023-04-24T09:53:20.984Z,15.70
2023-04-24T09:54:20.977Z,15.73
2023-04-24T09:55:20.979Z,15.77
2023-04-24T09:56:20.958Z,15.73
2023-04-24T09:57:20.944Z,15.71
2023-04-24T09:58:20.934Z,15.52
2023-04-24T09:59:20.937Z,15.53
2023-04-24T10:00:20.916Z,15.58
2023-04-24T10:01:20.921Z,15.44
2023-04-24T10:02:21.015Z,15.37
2023-04-24T10:03:20.962Z,15.49
2023-04-24T10:04:20.919Z,15.62
2023-04-24T10:05:20.861Z,15.51
2023-04-24T10:06:20.856Z,15.59
2023-04-24T10:07:20.840Z,15.58
2023-04-24T10:08:20.832Z,15.55
2023-04-24T10:09:20.827Z,15.67
2023-04-24T10:10:20.819Z,15.89
2023-04-24T10:11:20.804Z,15.98
2023-04-24T10:12:20.792Z,16.10
2023-04-24T10:13:20.775Z,16.25
2023-04-24T10:14:20.770Z,16.29
2023-04-24T10:15:20.770Z,16.40
2023-04-24T10:16:20.802Z,16.30
2023-04-24T10:17:20.743Z,16.25
2023-04-24T10:18:20.819Z,15.86
2023-04-24T10:19:20.718Z,15.66
2023-04-24T10:20:20.711Z,15.35
2023-04-24T10:21:20.699Z,15.44
2023-04-24T10:22:20.701Z,15.41
2023-04-24T10:23:20.695Z,15.43
2023-04-24T10:24:20.672Z,15.15
2023-04-24T10:25:20.660Z,15.18
2023-04-24T10:26:20.646Z,15.27
2023-04-24T10:27:20.640Z,15.40
2023-04-24T10:28:20.630Z,15.44
2023-04-24T10:29:20.668Z,15.48
2023-04-24T10:30:20.648Z,15.58
2023-04-24T10:31:20.680Z,15.64
2023-04-24T10:32:20.631Z,15.71
2023-04-24T10:33:20.577Z,15.44
2023-04-24T10:34:20.587Z,15.40
2023-04-24T10:35:20.566Z,15.27
2023-04-24T10:36:20.546Z,15.28
2023-04-24T10:37:20.537Z,15.33
2023-04-24T10:38:20.525Z,15.11
2023-04-24T10:39:20.525Z,15.05
2023-04-24T10:40:20.536Z,14.60
2023-04-24T10:41:20.502Z,14.78
2023-04-24T10:42:20.483Z,14.45
2023-04-24T10:43:20.487Z,14.61
2023-04-24T10:44:20.462Z,14.85
2023-04-24T10:45:20.455Z,15.03
2023-04-24T10:46:20.475Z,15.18
2023-04-24T10:47:20.441Z,15.34
2023-04-24T10:48:20.529Z,15.19
2023-04-24T10:49:20.414Z,15.04
2023-04-24T10:50:20.417Z,14.79
2023-04-24T10:51:20.419Z,14.83
2023-04-24T10:52:20.379Z,15.01
2023-04-24T10:53:20.396Z,15.15
2023-04-24T10:54:20.358Z,15.46
2023-04-24T10:55:20.351Z,15.60
2023-04-24T10:56:20.337Z,15.70
2023-04-24T10:57:20.347Z,15.62
2023-04-24T10:58:20.314Z,15.70
2023-04-24T10:59:20.306Z,15.93
2023-04-24T11:00:20.305Z,16.07
2023-04-24T11:01:20.361Z,16.29
2023-04-24T11:02:20.346Z,15.91
2023-04-24T11:03:20.328Z,15.88
2023-04-24T11:04:20.353Z,15.88
2023-04-24T11:05:20.246Z,15.78
2023-04-24T11:06:20.248Z,15.85
2023-04-24T11:07:20.225Z,15.93
2023-04-24T11:08:20.234Z,15.81
2023-04-24T11:09:20.204Z,16.08
2023-04-24T11:10:20.188Z,16.23
2023-04-24T11:11:20.183Z,16.47
2023-04-24T11:12:20.178Z,16.65
2023-04-24T11:13:20.179Z,16.07
2023-04-24T11:14:20.150Z,15.92
2023-04-24T11:15:20.145Z,15.95
2023-04-24T11:16:20.177Z,15.99
2023-04-24T11:17:20.142Z,15.58
2023-04-24T11:18:20.121Z,15.62
2023-04-24T11:19:20.167Z,15.23
2023-04-24T11:21:20.083Z,14.72
2023-04-24T11:22:20.090Z,14.80
2023-04-24T11:23:20.064Z,14.57
2023-04-24T11:24:20.053Z,14.80
2023-04-24T11:25:20.046Z,15.11
2023-04-24T11:26:20.050Z,15.23
2023-04-24T11:27:20.044Z,15.37
2023-04-24T11:28:20.020Z,15.48
2023-04-24T11:29:21.547Z,15.53
2023-04-24T11:30:19.993Z,15.59
2023-04-24T11:31:20.030Z,15.66
2023-04-24T11:32:20.076Z,15.64
2023-04-24T11:33:20.108Z,15.67
2023-04-24T11:34:19.953Z,15.68
2023-04-24T11:35:19.957Z,15.64
2023-04-24T11:36:19.934Z,15.68
2023-04-24T11:37:19.931Z,15.58
2023-04-24T11:38:24.648Z,15.67
2023-04-24T11:39:19.904Z,15.49
2023-04-24T11:40:19.891Z,15.37
2023-04-24T11:41:19.889Z,15.34
2023-04-24T11:42:19.874Z,15.34
2023-04-24T11:43:19.866Z,15.35
2023-04-24T11:44:19.862Z,15.51
2023-04-24T11:45:19.846Z,15.52
2023-04-24T11:46:19.848Z,15.55
2023-04-24T11:47:19.875Z,15.46
2023-04-24T11:48:22.506Z,15.43
2023-04-24T11:49:19.801Z,15.59
2023-04-24T11:50:19.793Z,15.56
2023-04-24T11:51:19.778Z,15.58
2023-04-24T11:52:19.770Z,15.55
2023-04-24T11:53:19.760Z,15.40
2023-04-24T11:54:19.776Z,14.83
2023-04-24T11:55:19.779Z,14.93
2023-04-24T11:56:19.738Z,14.94
2023-04-24T11:57:21.547Z,15.00
2023-04-24T11:58:19.706Z,14.82
2023-04-24T11:59:19.699Z,15.12
2023-04-24T12:00:19.950Z,15.37
2023-04-24T12:01:19.684Z,15.60
2023-04-24T12:02:19.742Z,15.77
2023-04-24T12:03:19.752Z,15.95
2023-04-24T12:04:20.012Z,16.07
2023-04-24T12:05:20.042Z,15.91
2023-04-24T12:06:19.767Z,15.80
2023-04-24T12:07:19.618Z,15.68
2023-04-24T12:08:19.605Z,15.73
2023-04-24T12:09:19.598Z,15.85
2023-04-24T12:10:19.615Z,15.89
2023-04-24T12:11:19.580Z,15.81
2023-04-24T12:12:19.566Z,15.86
2023-04-24T12:13:19.555Z,15.88
2023-04-24T12:14:19.544Z,15.88
2023-04-24T12:15:19.558Z,15.92
2023-04-24T12:16:19.597Z,15.98
2023-04-24T12:17:19.514Z,16.08
2023-04-24T12:18:19.539Z,16.25
2023-04-24T12:19:19.496Z,16.26
2023-04-24T12:20:19.491Z,16.48
2023-04-24T12:21:22.034Z,16.33
2023-04-24T12:22:19.462Z,16.42
2023-04-24T12:23:19.459Z,16.41
2023-04-24T12:24:19.446Z,16.45
2023-04-24T12:25:19.443Z,16.62
2023-04-24T12:26:19.508Z,16.44
2023-04-24T12:27:19.415Z,16.63
2023-04-24T12:28:19.410Z,16.80
2023-04-24T12:29:19.404Z,16.96
2023-04-24T12:30:19.393Z,16.41
2023-04-24T12:31:19.414Z,16.77
2023-04-24T12:32:19.366Z,16.91
2023-04-24T12:33:19.370Z,16.92
2023-04-24T12:34:19.354Z,16.99
2023-04-24T12:35:19.353Z,16.82
2023-04-24T12:36:19.328Z,16.52
2023-04-24T12:37:19.320Z,16.47
2023-04-24T12:38:19.308Z,16.42
2023-04-24T12:39:19.317Z,16.52
2023-04-24T12:40:19.295Z,16.48
2023-04-24T12:41:19.283Z,15.95
2023-04-24T12:42:19.379Z,16.06
2023-04-24T12:43:19.303Z,15.73
2023-04-24T12:44:19.253Z,15.92
2023-04-24T12:45:19.255Z,15.91
2023-04-24T12:46:21.179Z,15.93
2023-04-24T12:47:19.277Z,16.18
2023-04-24T12:48:19.242Z,16.07
2023-04-24T12:49:19.204Z,16.07
2023-04-24T12:50:19.197Z,15.62
2023-04-24T12:51:19.189Z,15.56
2023-04-24T12:52:19.178Z,15.46
2023-04-24T12:53:19.169Z,15.38
2023-04-24T12:54:19.205Z,15.46
2023-04-24T12:55:19.162Z,15.58
2023-04-24T12:56:19.175Z,15.70